Timeline UpdatesTrip UpdatesNews PostsPvt PostsTravel TipsAdmin PostsConv PostsFollowed PostsChat RequestsBlog PostsPNR Posts

Disclaimer
Search
 
 
Mon Sep 1, 2014 16:57:09 ISTHomeTrainsΣChainsAtlasPNRForumGalleryNewsFAQTripsMembersLoginFeedback
No Recent News for this Train
Other Trains in the News **new
Latest...
.
Fri May 09, 2014 (10:57PM)
⇐ Return Journey: Train# 14055

14056/Brahmaputra Mail

OLD Time-Table. New TT will soon be available.
May 09 2014 (10:58PM)
Change Departure Station:
Change Arrival Station:
Post a Train Travel TipPost a Train Travel Tip **new
Post a Comment/Question/Picture/VideoPost a Comment/Question/Picture/Video
Inaugural Run
Tue Oct 01, 1974
Pantry/Catering
✓ Pantry Car Avbl
✓ Catering Avbl
RSA - Rake Sharing
NO RSA
Rake/Coach Composition
LOCO-SLR-GS-GS-GS-S1-S2-S3-S4-S5-S6-S7-S8-S9-S10-S11-PC-A1-B1-B2-B3-GS-GS-GS-SLR
Loco
GZB WAP-4 (DLI-KIUL); SGUJ WDP-4/4B/4D (KIUL-DBRG)
News    PNR    Forum    Time-Table    Availability    Fare Chart    Map    Arr/Dep History    Trips    Gallery    ΣChains    X/O    Timeline    
Travel Time: 52h 20m    59 halts    Distance: 2598 km    Avg Speed: 49 km/hr
Type: Mail/Express
Zone: NR/Northern
Departs @ 23:40 (Avg 7m late)
Platform# 16
SMTWTFS
Old Delhi Junction/DLI 
Arrives @ 04:00 +3 nights (Avg 3h 59m late)
Platform# 1
SMTWTFS
Dibrugarh/DBRG 

59 halts. 437 intermediate Stations between Old Delhi Junction and Dibrugarh

Show ALL intermediate Stations  Show Old Time-Table

#CodeStation NameX/OArrivesAvgDepartsAvgHaltPFDay#KmSpeedElevZoneAddress
1DLI»Old Delhi Junction (16)»  -23:40+71610.059219mNRNear Chandni Chowk Metro Station, Delhi NCT
2KRJKhurja Junction (4)  01:04+2001:06+202m3282.782199mNCRBulandshahr, Uttar Pradesh
3ALJNAligarh Junction (4)XO  01:38+1901:43+195m22126.273192mNCRAligarh, Uttar Pradesh
4TDLTundla Junction (5)XO  02:47+2302:52+245m--2204.481167mNCRDistt.Firozabad, Uttar Pradesh
5SKBShikohabad Junction (4)O  03:19+3703:21+372m22240.881166mNCRDistrict Firozabad, Uttar Pradesh
6CNBKanpur Central (10)X  05:45+5305:55+5610m--2435.578128mNCRKANPUR-208 001, Uttar Pradesh
7ALDAllahabad Junction (10)X  08:25+1:2208:35+1:2510m42629.974100mNCRAllahabad 211003, Uttar Pradesh
8MZPMirzapur (3)X  09:48+2:0009:50+2:022m--2719.44288mNCRMirzapur, Uttar Pradesh
9MGSMughal Sarai Junction (8)  11:20+2:2611:30+2:2710m12782.67583mECRMughalsarai 232101, Uttar Pradesh
10DLNDildarnagar Junction (2)  12:16+2:3512:18+2:352m--2840.37572mECRDildarnagar, Uttar Pradesh
11BXRBuxar (3)X  12:47+2:4312:49+2:442m--2876.58467mECRBuxar, Bihar
12ARAAra Junction (3)X  13:38+2:5213:40+2:532m--2945.04563mECRarrah( 06182-233411), Bihar
13PNBEPatna Junction (10)  14:45+2:5114:55+2:5410m12993.94257mECRPatna 800001, Bihar
14PNCPatna Saheb (3)  15:09+3:0615:11+3:102m221003.87859mECRPatna, Bihar
15MKAMokama Junction (4)  16:12+4:0416:14+4:042m--21083.23748mECRPatna, Bihar
16KIULKiul Junction (5)17:10+4:0917:30+4:2320m421117.46653mECRDist. Lakhisarai, Bihar
17AHAAbhaipur (2)  17:51+4:3617:53+4:362m--21140.46052mERAbhaipur, Bihar
18JMPJamalpur Junction (4)X  18:15+4:3818:30+4:3515m--21162.26559mERJamalpur 06344-243101, Bihar
19SGGSultanGanj (3)  18:57+4:4118:59+4:432m--21191.33342mERSultanganj, Bihar
20BGPBhagalpur Junction (6)  19:45+4:2819:57+4:2612m121216.36949mERBhagalpur, Bihar
21CLGKahalgaon (2)  20:23+4:4720:25+4:482m121246.33744mERBhagalpur, Bihar
22SBGSahibganj Junction (3)X  21:37+4:3021:45+4:328m121290.24838mERSahibganj, Jharkhand
23BHWBarharwa Junction (3)  22:53+4:3422:55+4:352m221344.74036mERBarharwa, Jharkhand
24NFKNew Farakka Junction (3)X  23:22+4:3923:24+4:402m221362.73832mERDist - Murshidabad, West Bengal
25MLDTMalda Town (5)X  00:20+4:1800:40+4:1620m--31397.87830mERDist - Malda, West Bengal
26BOEBarsoi Junction (3)X  01:50+4:4501:52+4:462m--31488.37937mNFRdist- katihar, Bihar
27KNEKishanGanj (3)  02:36+4:5502:41+4:555m--31545.95052mNFRKishanganj, Bihar
28NJPNew Jalpaiguri Junction (8)  04:25+4:3204:45+4:3020m131633.252114mNFRCity-Siliguri . Dist-Jalpaiguri, West Bengal
29JPEJalpaiguri Road (2)  05:24+4:4405:26+4:462m131666.77189mNFRdist - Jalpaiguri 735102, West Bengal
30DQGDhupguri (2)  05:53+4:5605:58+4:565m--31698.56775mNFRDist - Jalpaiguri, West Bengal
31FLKFalakata (3)  06:18+5:0206:20+5:042m--31720.94567mNFRDist - Alipurduar, West Bengal
32NCBNew Cooch Behar Junction (5)  07:10+4:5107:15+4:525m--31758.75647mNFRDist : Cooch Behar-736101, West Bengal
33NOQNew Alipurduar (2)  07:35+5:0207:40+5:045m--31777.37848mNFRDist - Alipurduar - 736121, West Bengal
34GOGHGossaigaon Hat (3)  08:15+5:1008:17+5:102m--31823.073 NFRKokrajhar, Assam
35FKMFakiragram Junction (4)X  08:36+5:1008:38+5:102m331846.35944mNFR03661-283454, Assam
36KOJKokrajhar (3)X  08:48+5:1108:50+5:112m--31856.22246mNFR03661-270618, Assam
37NBQNew Bongaigaon Junction (4)  10:05+4:3610:15+4:3410m--31884.12458mNFR783381., Assam
38BNGNBongaigaon (3)  10:21+4:3410:23+4:362m--31886.56360mNFRBongaigaon, Assam
39BJFBijniX  10:37+4:3610:39+4:392m--31901.25854mNFRDist: Chirang, Assam
40BPRDBarpeta Road  11:07+4:3711:12+4:385m--31928.15849mNFRHowli, Assam
41NLVNalbariX  12:02+4:3812:04+4:402m--31976.54754mNFRNalbari, Assam
42RNYRangiya Junction (5)X  12:25+4:3412:35+4:3210m--31993.03058mNFRRangia, Assam
43KYQKamakhya Junction (4)  13:57+4:2314:02+4:255m--32033.71855mNFRDist - KAMRUP, Assam
44GHYGuwahati (7)X  14:25+4:2514:40+4:3315m--32040.65060mNFRGuwahati, Assam
45DGUDigaru  15:20+4:3515:22+4:372m--32074.25658mNFRDigaru, Assam
46JIDJagi Road (2)  15:47+4:4115:49+4:422m--32097.76662mNFRJagiroad, Assam
47CPKChaparmukh Junction (3)X  16:20+4:5116:25+4:555m--32131.75265mNFRChaparmukh. Dist. Nagaon. Changing point for HBN/SHTT, Assam
48KWMKampurX  16:45+4:5716:47+4:582m--32148.95968mNFRKampur, Assam
49JMKJamunamukhX  16:58+5:0217:00+5:022m--32159.73570mNFRNational Highway 36, Assam
50HJIHojai (2)  17:28+4:5317:30+4:532m--32176.26078mNFRHojai Rd. Ph:- 03674-252136., Assam
51LKALanka (2)X  17:44+4:5617:46+4:572m--32190.22789mNFRLanka, Assam
52LMGLumding Junction (5)O  18:55+4:3019:10+4:2515m332221.434142mNFRLumding, Assam
53DPUDiphu (2)  20:06+4:1620:08+4:162m--32253.560180mNFRDiphu, Assam
54DMVDimapur (3)  20:45+4:2720:55+4:2710m--32290.853153mNFRDimapur, Nagaland
55BXJBokajan (2)  21:11+4:3321:13+4:352m--32305.044138mNFRBokajan, Assam
56FKGFurkating Junction (2)  22:30+4:2122:32+4:262m--32361.053 NFRK B Rd, Assam
57MXNMariani Junction (4)X  23:15+4:3323:25+4:3510m132399.072117mNFRDist. Jorhat Pin-785634, Assam
58SLGRSimaluguri Junction (3)  00:10+5:0100:15+5:005m142453.26899mNFRSimaluguri, Assam
59BOJBhojo  00:45+5:0200:50+5:015m--42487.139107mNFRBhojo Railway Station, Assam
60NTSKNew Tinsukia Junction (3)  02:35+4:2502:45+4:3210m--42555.734124mNFRDist: Tinsukia, Assam
61DBRG•Dibrugarh (4)•  04:00+3:59-142597.7-108mNFRDibrugarh 786003, Assam
Scroll to Top
Scroll to Bottom